createdAt,value
2023-02-05T00:00:46.560Z,24.78
2023-02-05T00:03:36.677Z,24.64
2023-02-05T00:06:25.364Z,24.50
2023-02-05T00:09:14.536Z,24.33
2023-02-05T00:12:04.762Z,24.24
2023-02-05T00:14:53.705Z,24.18
2023-02-05T00:17:47.633Z,24.16
2023-02-05T00:20:36.796Z,24.14
2023-02-05T00:23:25.666Z,24.09
2023-02-05T00:26:15.134Z,24.13
2023-02-05T00:29:05.243Z,24.16
2023-02-05T00:31:53.934Z,24.12
2023-02-05T00:34:42.707Z,24.12
2023-02-05T00:37:31.372Z,24.09
2023-02-05T00:40:20.298Z,24.11
2023-02-05T00:43:08.958Z,24.10
2023-02-05T00:45:59.013Z,24.07
2023-02-05T00:48:47.673Z,24.06
2023-02-05T00:51:36.383Z,24.05
2023-02-05T00:54:25.055Z,24.05
2023-02-05T00:57:13.674Z,24.02
2023-02-05T01:00:02.226Z,24.06
2023-02-05T01:02:52.464Z,24.02
2023-02-05T01:05:41.554Z,23.99
2023-02-05T01:08:30.250Z,23.95
2023-02-05T01:11:20.032Z,23.98
2023-02-05T01:14:08.656Z,23.99
2023-02-05T01:16:57.274Z,24.01
2023-02-05T01:19:47.280Z,24.05
2023-02-05T01:22:35.983Z,24.06
2023-02-05T01:25:24.775Z,24.01
2023-02-05T01:28:13.528Z,23.97
2023-02-05T01:31:02.404Z,23.92
2023-02-05T01:33:53.139Z,23.98
2023-02-05T01:36:43.129Z,23.92
2023-02-05T01:39:31.749Z,23.96
2023-02-05T01:42:22.429Z,23.95
2023-02-05T01:45:50.836Z,23.93
2023-02-05T01:48:42.218Z,23.89
2023-02-05T01:51:32.012Z,23.85
2023-02-05T01:54:22.761Z,23.88
2023-02-05T01:57:13.289Z,23.92
2023-02-05T02:00:02.012Z,23.87
2023-02-05T02:02:50.918Z,23.88
2023-02-05T02:05:39.556Z,23.87
2023-02-05T02:08:28.229Z,23.86
2023-02-05T02:11:20.008Z,23.87
2023-02-05T02:14:10.272Z,23.84
2023-02-05T02:16:59.303Z,23.83
2023-02-05T02:19:54.932Z,23.90
2023-02-05T02:23:08.131Z,23.82
2023-02-05T02:26:13.164Z,23.83
2023-02-05T02:29:05.047Z,23.88
2023-02-05T02:31:57.753Z,23.92
2023-02-05T02:34:48.889Z,23.88
2023-02-05T02:37:41.858Z,23.90
2023-02-05T02:40:34.190Z,23.87
2023-02-05T02:43:27.031Z,23.84
2023-02-05T02:46:21.181Z,23.89
2023-02-05T02:49:13.769Z,23.83
2023-02-05T02:52:05.600Z,23.83
2023-02-05T02:54:56.966Z,23.84
2023-02-05T02:57:48.869Z,23.87
2023-02-05T03:00:39.683Z,23.87
2023-02-05T03:03:31.237Z,23.90
2023-02-05T03:06:23.492Z,23.88
2023-02-05T03:09:15.089Z,23.84
2023-02-05T03:12:03.745Z,23.91
2023-02-05T03:14:52.579Z,23.85
2023-02-05T03:17:42.117Z,23.82
2023-02-05T03:20:35.247Z,23.84
2023-02-05T03:23:24.616Z,23.82
2023-02-05T03:26:27.360Z,23.86
2023-02-05T03:29:18.028Z,23.85
2023-02-05T03:32:13.505Z,23.83
2023-02-05T03:35:09.848Z,23.87
2023-02-05T03:38:11.390Z,23.83
2023-02-05T03:41:01.742Z,23.81
2023-02-05T03:43:56.203Z,23.82
2023-02-05T03:46:48.467Z,23.85
2023-02-05T03:49:43.917Z,23.85
2023-02-05T03:52:35.733Z,23.81
2023-02-05T03:55:29.784Z,23.78
2023-02-05T03:58:22.793Z,23.77
2023-02-05T04:01:12.595Z,23.76
2023-02-05T04:04:01.272Z,23.78
2023-02-05T04:06:51.191Z,23.78
2023-02-05T04:09:39.798Z,23.80
2023-02-05T04:12:30.229Z,23.79
2023-02-05T04:15:19.031Z,23.75
2023-02-05T04:18:08.323Z,23.76
2023-02-05T04:20:57.066Z,23.74
2023-02-05T04:23:45.781Z,23.70
2023-02-05T04:26:34.419Z,23.77
2023-02-05T04:29:24.460Z,23.82
2023-02-05T04:32:13.069Z,23.81
2023-02-05T04:35:01.656Z,23.76
2023-02-05T04:37:50.299Z,23.74
2023-02-05T04:40:39.032Z,23.72
2023-02-05T04:43:27.715Z,23.70
2023-02-05T04:46:17.853Z,23.69
2023-02-05T04:49:06.545Z,23.70
2023-02-05T04:51:55.159Z,23.72
2023-02-05T04:54:43.770Z,23.73
2023-02-05T04:57:32.846Z,23.69
2023-02-05T05:00:21.799Z,23.66
2023-02-05T05:03:11.824Z,23.70
2023-02-05T05:06:05.370Z,23.73
2023-02-05T05:08:54.031Z,23.74
2023-02-05T05:11:42.715Z,23.75
2023-02-05T05:14:31.348Z,23.80
2023-02-05T05:17:19.983Z,23.77
2023-02-05T05:20:11.316Z,23.78
2023-02-05T05:22:59.941Z,23.78
2023-02-05T05:25:49.806Z,23.83
2023-02-05T05:28:38.645Z,23.82
2023-02-05T05:31:27.708Z,23.90
2023-02-05T05:34:16.681Z,23.93
2023-02-05T05:37:06.791Z,23.91
2023-02-05T05:40:13.063Z,23.94
2023-02-05T05:43:19.180Z,23.99
2023-02-05T05:46:09.476Z,24.00
2023-02-05T05:48:59.430Z,23.94
2023-02-05T05:51:48.020Z,23.86
2023-02-05T05:54:38.137Z,23.90
2023-02-05T05:57:27.013Z,23.91
2023-02-05T06:00:16.705Z,23.90
2023-02-05T06:03:05.446Z,23.98
2023-02-05T06:05:54.108Z,24.01
2023-02-05T06:08:42.727Z,23.91
2023-02-05T06:11:32.696Z,23.94
2023-02-05T06:14:21.274Z,23.88
2023-02-05T06:17:09.893Z,23.92
2023-02-05T06:19:58.682Z,23.92
2023-02-05T06:22:48.041Z,23.89
2023-02-05T06:25:36.746Z,23.91
2023-02-05T06:28:26.857Z,23.89
2023-02-05T06:31:15.513Z,23.90
2023-02-05T06:34:04.248Z,23.83
2023-02-05T06:36:52.887Z,23.90
2023-02-05T06:39:42.735Z,23.82
2023-02-05T06:42:31.392Z,23.81
2023-02-05T06:45:21.504Z,23.83
2023-02-05T06:48:10.136Z,23.86
2023-02-05T06:50:58.724Z,23.89
2023-02-05T06:53:47.351Z,23.87
2023-02-05T06:56:36.915Z,23.87
2023-02-05T06:59:25.736Z,23.83
2023-02-05T07:02:17.072Z,23.79
2023-02-05T07:05:05.947Z,23.83
2023-02-05T07:07:54.709Z,23.91
2023-02-05T07:10:43.304Z,23.99
2023-02-05T07:13:32.089Z,23.93
2023-02-05T07:16:20.686Z,23.92
2023-02-05T07:19:10.733Z,23.85
2023-02-05T07:21:59.332Z,23.89
2023-02-05T07:24:48.099Z,23.93
2023-02-05T07:27:36.753Z,23.96
2023-02-05T07:30:25.363Z,24.04
2023-02-05T07:33:14.017Z,24.06
2023-02-05T07:36:06.093Z,24.09
2023-02-05T07:38:54.760Z,23.97
2023-02-05T07:41:43.351Z,24.06
2023-02-05T07:44:32.038Z,24.03
2023-02-05T07:47:20.639Z,24.02
2023-02-05T07:50:09.831Z,24.07
2023-02-05T07:52:59.810Z,24.02
2023-02-05T07:55:48.596Z,23.97
2023-02-05T07:58:37.516Z,24.04
2023-02-05T08:01:26.124Z,24.04
2023-02-05T08:04:14.771Z,24.06
2023-02-05T08:07:03.368Z,24.01
2023-02-05T08:09:53.376Z,23.95
2023-02-05T08:12:41.979Z,23.94
2023-02-05T08:15:30.565Z,23.99
2023-02-05T08:18:20.143Z,23.98
2023-02-05T08:21:08.684Z,23.99
2023-02-05T08:23:58.480Z,23.95
2023-02-05T08:26:48.472Z,23.91
2023-02-05T08:29:37.326Z,23.88
2023-02-05T08:32:26.053Z,23.86
2023-02-05T08:35:14.544Z,23.99
2023-02-05T08:38:03.142Z,24.04
2023-02-05T08:40:52.645Z,24.10
2023-02-05T08:43:43.784Z,24.16
2023-02-05T08:46:47.569Z,24.14
2023-02-05T08:49:38.357Z,24.16
2023-02-05T08:52:27.004Z,24.17
2023-02-05T08:55:15.664Z,24.16
2023-02-05T08:58:04.255Z,24.22
2023-02-05T09:00:54.474Z,24.17
2023-02-05T09:03:43.253Z,24.12
2023-02-05T09:06:32.062Z,24.18
2023-02-05T09:09:21.110Z,24.26
2023-02-05T09:12:10.653Z,24.45
2023-02-05T09:14:59.493Z,24.55
2023-02-05T09:17:49.462Z,24.83
2023-02-05T09:20:42.556Z,24.93
2023-02-05T09:23:31.144Z,24.94
2023-02-05T09:26:19.931Z,24.86
2023-02-05T09:29:08.626Z,24.73
2023-02-05T09:31:57.304Z,24.44
2023-02-05T09:34:49.034Z,24.28
2023-02-05T09:37:39.211Z,24.52
2023-02-05T09:40:31.625Z,24.64
2023-02-05T09:43:28.484Z,24.77
2023-02-05T09:46:23.214Z,24.74
2023-02-05T09:49:17.183Z,24.79
2023-02-05T09:52:13.655Z,24.90
2023-02-05T09:55:05.026Z,24.95
2023-02-05T09:57:56.075Z,24.99
2023-02-05T10:00:47.897Z,25.04
2023-02-05T10:03:45.126Z,25.09
2023-02-05T10:06:42.225Z,25.08
2023-02-05T10:09:41.981Z,25.13
2023-02-05T10:12:42.701Z,25.17
2023-02-05T10:15:44.924Z,25.19
2023-02-05T10:18:41.719Z,25.25
2023-02-05T10:21:41.568Z,25.21
2023-02-05T10:24:54.145Z,25.17
2023-02-05T10:27:48.661Z,25.17
2023-02-05T10:30:44.828Z,25.29
2023-02-05T10:33:45.580Z,25.29
2023-02-05T10:36:34.821Z,25.09
2023-02-05T10:39:27.973Z,25.14
2023-02-05T10:42:26.188Z,25.00
2023-02-05T10:45:19.096Z,24.98
2023-02-05T10:48:24.354Z,25.05
2023-02-05T10:51:15.152Z,25.02
2023-02-05T10:54:03.781Z,25.08
2023-02-05T10:56:52.504Z,24.94
2023-02-05T10:59:50.059Z,25.05
2023-02-05T11:02:41.500Z,25.15
2023-02-05T11:05:33.722Z,24.78
2023-02-05T11:08:37.111Z,24.83
2023-02-05T11:11:28.132Z,24.94
2023-02-05T11:14:25.009Z,24.83
2023-02-05T11:17:24.454Z,24.81
2023-02-05T11:20:24.579Z,24.89
2023-02-05T11:23:19.353Z,24.97
2023-02-05T11:26:16.362Z,24.93
2023-02-05T11:29:20.801Z,24.98
2023-02-05T11:32:21.528Z,24.93
2023-02-05T11:35:29.177Z,24.98
2023-02-05T11:38:23.877Z,25.06
2023-02-05T11:41:14.471Z,24.91
2023-02-05T11:44:03.667Z,24.95
2023-02-05T11:46:56.788Z,25.07
2023-02-05T11:49:51.917Z,25.14
2023-02-05T11:52:40.582Z,25.18
2023-02-05T11:55:31.879Z,25.23
2023-02-05T11:58:34.950Z,25.43
2023-02-05T12:01:26.000Z,25.52
2023-02-05T12:04:19.039Z,25.32
2023-02-05T12:07:14.377Z,25.44
2023-02-05T12:10:03.010Z,25.30
2023-02-05T12:12:59.248Z,25.40
2023-02-05T12:15:55.710Z,25.45
2023-02-05T12:18:50.707Z,25.24
2023-02-05T12:21:47.537Z,24.75
2023-02-05T12:24:57.929Z,25.08
2023-02-05T12:27:59.350Z,25.12
2023-02-05T12:30:59.934Z,25.13
2023-02-05T12:34:03.277Z,25.25
2023-02-05T12:37:02.697Z,25.27
2023-02-05T12:39:54.764Z,25.18
2023-02-05T12:42:51.606Z,25.30
2023-02-05T12:45:49.277Z,25.28
2023-02-05T12:48:51.453Z,25.30
2023-02-05T12:51:50.897Z,25.33
2023-02-05T12:54:52.400Z,25.32
2023-02-05T12:57:46.224Z,25.33
2023-02-05T13:00:41.481Z,25.32
2023-02-05T13:03:33.939Z,25.31
2023-02-05T13:06:25.916Z,25.40
2023-02-05T13:09:18.198Z,25.47
2023-02-05T13:12:12.954Z,25.44
2023-02-05T13:15:08.988Z,25.38
2023-02-05T13:18:01.217Z,25.31
2023-02-05T13:21:09.983Z,25.27
2023-02-05T13:24:23.006Z,25.23
2023-02-05T13:27:39.242Z,25.14
2023-02-05T13:30:33.777Z,25.36
2023-02-05T13:33:22.680Z,25.40
2023-02-05T13:36:43.834Z,25.11
2023-02-05T13:39:47.742Z,25.01
2023-02-05T13:43:00.561Z,24.62
2023-02-05T13:46:29.277Z,24.51
2023-02-05T13:49:38.303Z,24.49
2023-02-05T13:52:41.209Z,24.62
2023-02-05T13:55:48.693Z,24.60
2023-02-05T13:58:47.584Z,25.13
2023-02-05T14:01:42.521Z,25.35
2023-02-05T14:04:37.966Z,25.43
2023-02-05T14:07:29.095Z,25.50
2023-02-05T14:10:36.411Z,25.46
2023-02-05T14:13:28.554Z,25.51
2023-02-05T14:16:37.972Z,25.55
2023-02-05T14:19:29.495Z,25.58
2023-02-05T14:22:37.118Z,25.49
2023-02-05T14:26:05.204Z,25.44
2023-02-05T14:28:54.095Z,25.45
2023-02-05T14:31:52.604Z,25.29
2023-02-05T14:34:48.850Z,25.42
2023-02-05T14:37:39.202Z,25.48
2023-02-05T14:40:30.536Z,25.45
2023-02-05T14:43:24.847Z,25.38
2023-02-05T14:46:30.825Z,25.43
2023-02-05T14:49:25.442Z,25.38
2023-02-05T14:52:27.740Z,25.23
2023-02-05T14:55:21.632Z,25.47
2023-02-05T14:58:20.423Z,25.49
2023-02-05T15:01:31.573Z,25.66
2023-02-05T15:04:25.823Z,25.63
2023-02-05T15:07:17.368Z,25.50
2023-02-05T15:10:08.682Z,25.47
2023-02-05T15:13:04.173Z,25.35
2023-02-05T15:16:25.593Z,25.53
2023-02-05T15:19:15.368Z,25.71
2023-02-05T15:22:06.727Z,25.75
2023-02-05T15:24:55.708Z,25.68
2023-02-05T15:27:47.244Z,25.49
2023-02-05T15:30:48.019Z,25.62
2023-02-05T15:33:45.076Z,25.71
2023-02-05T15:36:37.804Z,25.77
2023-02-05T15:39:32.772Z,25.81
2023-02-05T15:42:25.181Z,25.88
2023-02-05T15:45:20.232Z,25.71
2023-02-05T15:48:14.245Z,25.27
2023-02-05T15:51:11.058Z,25.45
2023-02-05T15:54:01.792Z,25.71
2023-02-05T15:56:54.038Z,25.73
2023-02-05T15:59:42.739Z,25.78
2023-02-05T16:02:32.740Z,25.77
2023-02-05T16:05:23.172Z,25.80
2023-02-05T16:08:19.229Z,25.52
2023-02-05T16:11:07.833Z,25.68
2023-02-05T16:14:08.653Z,25.76
2023-02-05T16:17:02.376Z,25.80
2023-02-05T16:19:53.918Z,25.77
2023-02-05T16:22:44.012Z,25.81
2023-02-05T16:25:37.803Z,25.23
2023-02-05T16:28:33.513Z,25.03
2023-02-05T16:31:26.226Z,24.96
2023-02-05T16:34:17.618Z,25.02
2023-02-05T16:37:10.104Z,25.06
2023-02-05T16:40:00.687Z,25.05
2023-02-05T16:42:49.324Z,25.14
2023-02-05T16:45:37.924Z,25.10
2023-02-05T16:48:31.729Z,25.02
2023-02-05T16:51:35.539Z,25.02
2023-02-05T16:54:30.305Z,25.32
2023-02-05T16:57:26.600Z,25.53
2023-02-05T17:00:21.535Z,25.62
2023-02-05T17:03:18.421Z,25.65
2023-02-05T17:06:13.958Z,25.70
2023-02-05T17:09:05.520Z,25.75
2023-02-05T17:11:54.119Z,25.75
2023-02-05T17:14:54.669Z,25.73
2023-02-05T17:17:47.399Z,25.27
2023-02-05T17:20:36.634Z,25.36
2023-02-05T17:23:26.671Z,25.47
2023-02-05T17:26:15.331Z,25.54
2023-02-05T17:29:06.777Z,25.61
2023-02-05T17:31:57.991Z,25.59
2023-02-05T17:34:46.899Z,25.50
2023-02-05T17:37:42.081Z,25.60
2023-02-05T17:40:32.436Z,25.62
2023-02-05T17:43:21.261Z,25.46
2023-02-05T17:46:14.086Z,25.63
2023-02-05T17:49:02.766Z,25.70
2023-02-05T17:51:51.435Z,25.74
2023-02-05T17:54:40.331Z,25.80
2023-02-05T17:57:33.727Z,25.77
2023-02-05T18:00:24.478Z,25.71
2023-02-05T18:03:13.149Z,25.70
2023-02-05T18:06:01.742Z,25.64
2023-02-05T18:08:50.319Z,25.67
2023-02-05T18:11:43.815Z,25.75
2023-02-05T18:14:33.877Z,25.67
2023-02-05T18:17:22.480Z,25.68
2023-02-05T18:20:11.521Z,25.61
2023-02-05T18:23:00.113Z,25.44
2023-02-05T18:25:48.733Z,25.18
2023-02-05T18:28:37.777Z,25.16
2023-02-05T18:31:28.001Z,25.22
2023-02-05T18:34:16.816Z,25.37
2023-02-05T18:37:05.484Z,25.31
2023-02-05T18:39:54.074Z,25.31
2023-02-05T18:42:46.937Z,25.23
2023-02-05T18:45:35.621Z,25.24
2023-02-05T18:48:25.618Z,25.41
2023-02-05T18:51:15.644Z,25.47
2023-02-05T18:54:06.544Z,25.48
2023-02-05T18:56:56.320Z,25.50
2023-02-05T18:59:44.958Z,25.24
2023-02-05T19:02:35.193Z,25.12
2023-02-05T19:05:26.971Z,25.31
2023-02-05T19:08:15.763Z,25.35
2023-02-05T19:11:08.077Z,25.24
2023-02-05T19:13:57.486Z,25.45
2023-02-05T19:16:47.146Z,25.41
2023-02-05T19:19:35.904Z,25.45
2023-02-05T19:22:25.881Z,25.39
2023-02-05T19:25:14.579Z,25.45
2023-02-05T19:28:03.321Z,25.49
2023-02-05T19:30:52.023Z,25.49
2023-02-05T19:33:41.279Z,25.50
2023-02-05T19:36:30.887Z,25.49
2023-02-05T19:39:21.057Z,25.54
2023-02-05T19:42:10.027Z,25.56
2023-02-05T19:44:58.608Z,25.60
2023-02-05T19:47:47.229Z,25.57
2023-02-05T19:50:36.000Z,25.56
2023-02-05T19:53:25.012Z,25.58
2023-02-05T19:56:17.182Z,25.48
2023-02-05T19:59:06.270Z,25.54
2023-02-05T20:01:54.983Z,25.57
2023-02-05T20:04:43.584Z,25.60
2023-02-05T20:07:33.820Z,25.57
2023-02-05T20:10:22.519Z,25.51
2023-02-05T20:13:13.525Z,25.48
2023-02-05T20:16:03.630Z,25.53
2023-02-05T20:18:55.321Z,25.50
2023-02-05T20:21:44.838Z,25.40
2023-02-05T20:24:33.552Z,25.45
2023-02-05T20:27:22.262Z,25.48
2023-02-05T20:30:33.378Z,25.48
2023-02-05T20:33:22.108Z,25.39
2023-02-05T20:36:12.649Z,25.42
2023-02-05T20:39:02.764Z,25.47
2023-02-05T20:41:52.808Z,25.46
2023-02-05T20:44:42.005Z,25.41
2023-02-05T20:47:32.960Z,25.41
2023-02-05T20:50:21.546Z,25.38
2023-02-05T20:53:10.135Z,25.37
2023-02-05T20:56:02.276Z,25.40
2023-02-05T20:58:51.072Z,25.29
2023-02-05T21:01:41.125Z,25.26
2023-02-05T21:04:31.247Z,25.33
2023-02-05T21:07:19.837Z,25.17
2023-02-05T21:10:10.081Z,25.35
2023-02-05T21:12:58.756Z,25.38
2023-02-05T21:15:53.780Z,25.38
2023-02-05T21:18:42.691Z,25.32
2023-02-05T21:21:34.050Z,25.33
2023-02-05T21:24:22.646Z,25.35
2023-02-05T21:27:11.346Z,25.31
2023-02-05T21:30:00.014Z,25.30
2023-02-05T21:32:48.638Z,25.26
2023-02-05T21:35:39.178Z,25.08
2023-02-05T21:38:31.567Z,25.21
2023-02-05T21:41:20.792Z,25.21
2023-02-05T21:44:09.611Z,25.28
2023-02-05T21:46:58.181Z,25.32
2023-02-05T21:49:46.782Z,25.27
2023-02-05T21:52:35.400Z,25.22
2023-02-05T21:55:26.814Z,24.95
2023-02-05T21:58:15.734Z,24.96
2023-02-05T22:01:12.656Z,24.86
2023-02-05T22:04:02.535Z,24.72
2023-02-05T22:06:52.022Z,24.59
2023-02-05T22:09:41.470Z,24.37
2023-02-05T22:12:31.489Z,24.24
2023-02-05T22:15:20.179Z,24.11
2023-02-05T22:18:08.721Z,24.01
2023-02-05T22:20:57.333Z,23.87
2023-02-05T22:23:48.857Z,23.72
2023-02-05T22:26:39.456Z,23.60
2023-02-05T22:29:29.620Z,23.57
2023-02-05T22:32:18.165Z,23.56
2023-02-05T22:35:07.287Z,23.51
2023-02-05T22:37:55.901Z,23.75
2023-02-05T22:40:44.755Z,23.89
2023-02-05T22:43:33.406Z,23.99
2023-02-05T22:46:24.704Z,24.08
2023-02-05T22:49:15.711Z,24.10
2023-02-05T22:52:04.401Z,24.14
2023-02-05T22:54:53.058Z,23.93
2023-02-05T22:57:41.665Z,23.86
2023-02-05T23:00:30.661Z,23.87
2023-02-05T23:03:20.723Z,23.83
2023-02-05T23:06:11.370Z,23.79
2023-02-05T23:09:02.569Z,23.80
2023-02-05T23:11:51.256Z,23.80
2023-02-05T23:14:40.088Z,23.79
2023-02-05T23:17:28.822Z,23.76
2023-02-05T23:20:18.962Z,23.78
2023-02-05T23:23:07.557Z,23.77
2023-02-05T23:25:56.370Z,23.75
2023-02-05T23:28:45.435Z,23.76
2023-02-05T23:31:34.616Z,23.72
2023-02-05T23:34:23.718Z,23.70
2023-02-05T23:37:14.346Z,23.70
2023-02-05T23:40:03.182Z,23.72
2023-02-05T23:42:52.352Z,23.68
2023-02-05T23:45:41.159Z,23.69
2023-02-05T23:48:30.266Z,23.68
2023-02-05T23:51:18.861Z,23.68
2023-02-05T23:54:10.025Z,23.72
2023-02-05T23:56:58.616Z,23.73
2023-02-05T23:59:47.465Z,23.68
